sensor_id;sensor_type;location;lat;lon;timestamp;temperature;humidity
23207;DHT22;11773;52.570;13.052;2024-01-30T00:00:17;3.90;99.90
23207;DHT22;11773;52.570;13.052;2024-01-30T00:02:46;3.90;99.90
23207;DHT22;11773;52.570;13.052;2024-01-30T00:05:16;3.80;99.90
23207;DHT22;11773;52.570;13.052;2024-01-30T00:07:45;3.90;99.90
23207;DHT22;11773;52.570;13.052;2024-01-30T00:10:15;3.80;99.90
23207;DHT22;11773;52.570;13.052;2024-01-30T00:12:45;3.70;99.90
23207;DHT22;11773;52.570;13.052;2024-01-30T00:15:15;3.70;99.90
23207;DHT22;11773;52.570;13.052;2024-01-30T00:17:44;3.70;99.90
23207;DHT22;11773;52.570;13.052;2024-01-30T00:20:14;3.70;99.90
23207;DHT22;11773;52.570;13.052;2024-01-30T00:22:44;3.70;99.90
23207;DHT22;11773;52.570;13.052;2024-01-30T00:25:13;3.80;99.90
23207;DHT22;11773;52.570;13.052;2024-01-30T00:27:43;3.90;99.90
23207;DHT22;11773;52.570;13.052;2024-01-30T00:30:13;3.80;99.90
23207;DHT22;11773;52.570;13.052;2024-01-30T00:32:43;3.70;99.90
23207;DHT22;11773;52.570;13.052;2024-01-30T00:35:13;3.80;99.90
23207;DHT22;11773;52.570;13.052;2024-01-30T00:37:42;3.80;99.90
23207;DHT22;11773;52.570;13.052;2024-01-30T00:40:12;3.70;99.90
23207;DHT22;11773;52.570;13.052;2024-01-30T00:42:44;3.60;99.90
23207;DHT22;11773;52.570;13.052;2024-01-30T00:45:16;3.60;99.90
23207;DHT22;11773;52.570;13.052;2024-01-30T00:47:46;3.60;99.90
23207;DHT22;11773;52.570;13.052;2024-01-30T00:50:16;3.60;99.90
23207;DHT22;11773;52.570;13.052;2024-01-30T00:52:46;3.60;99.90
23207;DHT22;11773;52.570;13.052;2024-01-30T00:55:15;3.70;99.90
23207;DHT22;11773;52.570;13.052;2024-01-30T00:57:45;3.60;99.90
23207;DHT22;11773;52.570;13.052;2024-01-30T01:00:15;3.60;99.90
23207;DHT22;11773;52.570;13.052;2024-01-30T01:02:45;3.60;99.90
23207;DHT22;11773;52.570;13.052;2024-01-30T01:05:15;3.50;99.90
23207;DHT22;11773;52.570;13.052;2024-01-30T01:07:45;3.40;99.90
23207;DHT22;11773;52.570;13.052;2024-01-30T01:10:19;3.50;99.90
23207;DHT22;11773;52.570;13.052;2024-01-30T01:12:49;3.50;99.90
23207;DHT22;11773;52.570;13.052;2024-01-30T01:15:20;3.60;99.90
23207;DHT22;11773;52.570;13.052;2024-01-30T01:17:49;3.40;99.90
23207;DHT22;11773;52.570;13.052;2024-01-30T01:20:19;3.40;99.90
23207;DHT22;11773;52.570;13.052;2024-01-30T01:22:49;3.40;99.90
23207;DHT22;11773;52.570;13.052;2024-01-30T01:25:20;3.40;99.90
23207;DHT22;11773;52.570;13.052;2024-01-30T01:27:50;3.30;99.90
23207;DHT22;11773;52.570;13.052;2024-01-30T01:30:20;3.30;99.90
23207;DHT22;11773;52.570;13.052;2024-01-30T01:32:50;3.30;99.90
23207;DHT22;11773;52.570;13.052;2024-01-30T01:35:22;3.30;99.90
23207;DHT22;11773;52.570;13.052;2024-01-30T01:37:55;3.20;99.90
23207;DHT22;11773;52.570;13.052;2024-01-30T01:40:27;3.30;99.90
23207;DHT22;11773;52.570;13.052;2024-01-30T01:42:57;3.30;99.90
23207;DHT22;11773;52.570;13.052;2024-01-30T01:45:26;3.30;99.90
23207;DHT22;11773;52.570;13.052;2024-01-30T01:47:56;3.30;99.90
23207;DHT22;11773;52.570;13.052;2024-01-30T01:50:25;3.20;99.90
23207;DHT22;11773;52.570;13.052;2024-01-30T01:52:56;3.30;99.90
23207;DHT22;11773;52.570;13.052;2024-01-30T01:55:26;3.20;99.90
23207;DHT22;11773;52.570;13.052;2024-01-30T01:57:58;3.30;99.90
23207;DHT22;11773;52.570;13.052;2024-01-30T02:00:29;3.30;99.90
23207;DHT22;11773;52.570;13.052;2024-01-30T02:02:59;3.20;99.90
23207;DHT22;11773;52.570;13.052;2024-01-30T02:13:06;3.10;99.90
23207;DHT22;11773;52.570;13.052;2024-01-30T02:15:35;3.20;99.90
23207;DHT22;11773;52.570;13.052;2024-01-30T02:18:05;3.10;99.90
23207;DHT22;11773;52.570;13.052;2024-01-30T02:20:35;3.10;99.90
23207;DHT22;11773;52.570;13.052;2024-01-30T02:23:07;3.00;99.90
23207;DHT22;11773;52.570;13.052;2024-01-30T02:25:40;3.10;99.90
23207;DHT22;11773;52.570;13.052;2024-01-30T02:28:13;3.10;99.90
23207;DHT22;11773;52.570;13.052;2024-01-30T02:30:43;3.20;99.90
23207;DHT22;11773;52.570;13.052;2024-01-30T02:33:13;3.30;99.90
23207;DHT22;11773;52.570;13.052;2024-01-30T02:35:43;3.30;99.90
23207;DHT22;11773;52.570;13.052;2024-01-30T02:38:13;3.20;99.90
23207;DHT22;11773;52.570;13.052;2024-01-30T02:40:44;3.10;99.90
23207;DHT22;11773;52.570;13.052;2024-01-30T02:43:13;3.20;99.90
23207;DHT22;11773;52.570;13.052;2024-01-30T02:45:43;3.20;99.90
23207;DHT22;11773;52.570;13.052;2024-01-30T02:48:13;3.30;99.90
23207;DHT22;11773;52.570;13.052;2024-01-30T02:50:42;3.10;99.90
23207;DHT22;11773;52.570;13.052;2024-01-30T02:53:13;3.10;99.90
23207;DHT22;11773;52.570;13.052;2024-01-30T02:55:43;3.20;99.90
23207;DHT22;11773;52.570;13.052;2024-01-30T02:58:12;3.20;99.90
23207;DHT22;11773;52.570;13.052;2024-01-30T03:00:42;3.20;99.90
23207;DHT22;11773;52.570;13.052;2024-01-30T03:03:12;3.10;99.90
23207;DHT22;11773;52.570;13.052;2024-01-30T03:05:41;3.20;99.90
23207;DHT22;11773;52.570;13.052;2024-01-30T03:08:11;3.10;99.90
23207;DHT22;11773;52.570;13.052;2024-01-30T03:10:41;3.20;99.90
23207;DHT22;11773;52.570;13.052;2024-01-30T03:13:10;3.10;99.90
23207;DHT22;11773;52.570;13.052;2024-01-30T03:15:40;3.10;99.90
23207;DHT22;11773;52.570;13.052;2024-01-30T03:18:09;3.10;99.90
23207;DHT22;11773;52.570;13.052;2024-01-30T03:20:39;3.10;99.90
23207;DHT22;11773;52.570;13.052;2024-01-30T03:23:08;3.00;99.90
23207;DHT22;11773;52.570;13.052;2024-01-30T03:25:38;3.10;99.90
23207;DHT22;11773;52.570;13.052;2024-01-30T03:28:07;3.10;99.90
23207;DHT22;11773;52.570;13.052;2024-01-30T03:30:37;3.10;99.90
23207;DHT22;11773;52.570;13.052;2024-01-30T03:33:07;3.00;99.90
23207;DHT22;11773;52.570;13.052;2024-01-30T03:35:37;2.90;99.90
23207;DHT22;11773;52.570;13.052;2024-01-30T03:38:06;2.90;99.90
23207;DHT22;11773;52.570;13.052;2024-01-30T03:40:36;2.90;99.90
23207;DHT22;11773;52.570;13.052;2024-01-30T03:43:05;3.10;99.90
23207;DHT22;11773;52.570;13.052;2024-01-30T03:45:35;3.00;99.90
23207;DHT22;11773;52.570;13.052;2024-01-30T03:48:05;2.90;99.90
23207;DHT22;11773;52.570;13.052;2024-01-30T03:50:35;3.20;99.90
23207;DHT22;11773;52.570;13.052;2024-01-30T03:53:04;3.10;99.90
23207;DHT22;11773;52.570;13.052;2024-01-30T03:55:34;3.00;99.90
23207;DHT22;11773;52.570;13.052;2024-01-30T03:58:03;3.00;99.90
23207;DHT22;11773;52.570;13.052;2024-01-30T04:00:33;3.00;99.90
23207;DHT22;11773;52.570;13.052;2024-01-30T04:03:03;2.90;99.90
23207;DHT22;11773;52.570;13.052;2024-01-30T04:05:34;3.00;99.90
23207;DHT22;11773;52.570;13.052;2024-01-30T04:08:04;2.90;99.90
23207;DHT22;11773;52.570;13.052;2024-01-30T04:10:34;2.90;99.90
23207;DHT22;11773;52.570;13.052;2024-01-30T04:13:03;2.90;99.90
23207;DHT22;11773;52.570;13.052;2024-01-30T04:15:35;3.00;99.90
23207;DHT22;11773;52.570;13.052;2024-01-30T04:18:05;2.80;99.90
23207;DHT22;11773;52.570;13.052;2024-01-30T04:20:35;2.90;99.90
23207;DHT22;11773;52.570;13.052;2024-01-30T04:23:04;3.00;99.90
23207;DHT22;11773;52.570;13.052;2024-01-30T04:25:34;3.10;99.90
23207;DHT22;11773;52.570;13.052;2024-01-30T04:28:05;3.00;99.90
23207;DHT22;11773;52.570;13.052;2024-01-30T04:30:35;2.90;99.90
23207;DHT22;11773;52.570;13.052;2024-01-30T04:33:05;3.00;99.90
23207;DHT22;11773;52.570;13.052;2024-01-30T04:35:36;3.10;99.90
23207;DHT22;11773;52.570;13.052;2024-01-30T04:38:05;3.10;99.90
23207;DHT22;11773;52.570;13.052;2024-01-30T04:40:35;3.00;99.90
23207;DHT22;11773;52.570;13.052;2024-01-30T04:43:04;3.00;99.90
23207;DHT22;11773;52.570;13.052;2024-01-30T04:45:35;3.00;99.90
23207;DHT22;11773;52.570;13.052;2024-01-30T04:48:05;2.90;99.90
23207;DHT22;11773;52.570;13.052;2024-01-30T04:50:34;2.80;99.90
23207;DHT22;11773;52.570;13.052;2024-01-30T04:53:04;2.90;99.90
23207;DHT22;11773;52.570;13.052;2024-01-30T04:55:34;2.80;99.90
23207;DHT22;11773;52.570;13.052;2024-01-30T04:58:04;2.70;99.90
23207;DHT22;11773;52.570;13.052;2024-01-30T05:00:34;2.80;99.90
23207;DHT22;11773;52.570;13.052;2024-01-30T05:03:04;2.70;99.90
23207;DHT22;11773;52.570;13.052;2024-01-30T05:05:33;2.70;99.90
23207;DHT22;11773;52.570;13.052;2024-01-30T05:08:03;2.80;99.90
23207;DHT22;11773;52.570;13.052;2024-01-30T05:10:33;2.70;99.90
23207;DHT22;11773;52.570;13.052;2024-01-30T05:13:02;2.70;99.90
23207;DHT22;11773;52.570;13.052;2024-01-30T05:15:32;2.80;99.90
23207;DHT22;11773;52.570;13.052;2024-01-30T05:18:02;2.70;99.90
23207;DHT22;11773;52.570;13.052;2024-01-30T05:20:31;2.70;99.90
23207;DHT22;11773;52.570;13.052;2024-01-30T05:23:01;2.60;99.90
23207;DHT22;11773;52.570;13.052;2024-01-30T05:25:31;2.90;99.90
23207;DHT22;11773;52.570;13.052;2024-01-30T05:28:01;2.90;99.90
23207;DHT22;11773;52.570;13.052;2024-01-30T05:30:30;2.90;99.90
23207;DHT22;11773;52.570;13.052;2024-01-30T05:33:02;2.90;99.90
23207;DHT22;11773;52.570;13.052;2024-01-30T05:35:32;2.70;99.90
23207;DHT22;11773;52.570;13.052;2024-01-30T05:38:02;2.60;99.90
23207;DHT22;11773;52.570;13.052;2024-01-30T05:40:31;2.70;99.90
23207;DHT22;11773;52.570;13.052;2024-01-30T05:43:01;2.70;99.90
23207;DHT22;11773;52.570;13.052;2024-01-30T05:45:31;2.90;99.90
23207;DHT22;11773;52.570;13.052;2024-01-30T05:48:01;2.90;99.90
23207;DHT22;11773;52.570;13.052;2024-01-30T05:50:30;2.70;99.90
23207;DHT22;11773;52.570;13.052;2024-01-30T05:53:00;2.70;99.90
23207;DHT22;11773;52.570;13.052;2024-01-30T05:55:30;2.70;99.90
23207;DHT22;11773;52.570;13.052;2024-01-30T05:57:59;2.70;99.90
23207;DHT22;11773;52.570;13.052;2024-01-30T06:00:29;2.70;99.90
23207;DHT22;11773;52.570;13.052;2024-01-30T06:02:59;2.70;99.90
23207;DHT22;11773;52.570;13.052;2024-01-30T06:05:28;2.70;99.90
23207;DHT22;11773;52.570;13.052;2024-01-30T06:07:58;2.70;99.90
23207;DHT22;11773;52.570;13.052;2024-01-30T06:10:28;2.70;99.90
23207;DHT22;11773;52.570;13.052;2024-01-30T06:12:57;2.70;99.90
23207;DHT22;11773;52.570;13.052;2024-01-30T06:15:27;2.70;99.90
23207;DHT22;11773;52.570;13.052;2024-01-30T06:17:58;2.70;99.90
23207;DHT22;11773;52.570;13.052;2024-01-30T06:20:28;2.70;99.90
23207;DHT22;11773;52.570;13.052;2024-01-30T06:22:58;2.70;99.90
23207;DHT22;11773;52.570;13.052;2024-01-30T06:25:27;2.60;99.90
23207;DHT22;11773;52.570;13.052;2024-01-30T06:27:57;2.80;99.90
23207;DHT22;11773;52.570;13.052;2024-01-30T06:30:26;2.70;99.90
23207;DHT22;11773;52.570;13.052;2024-01-30T06:32:56;2.70;99.90
23207;DHT22;11773;52.570;13.052;2024-01-30T06:35:26;2.60;99.90
23207;DHT22;11773;52.570;13.052;2024-01-30T06:37:56;2.70;99.90
23207;DHT22;11773;52.570;13.052;2024-01-30T06:40:26;2.70;99.90
23207;DHT22;11773;52.570;13.052;2024-01-30T06:42:56;2.70;99.90
23207;DHT22;11773;52.570;13.052;2024-01-30T06:45:25;2.70;99.90
23207;DHT22;11773;52.570;13.052;2024-01-30T06:47:55;2.70;99.90
23207;DHT22;11773;52.570;13.052;2024-01-30T06:50:24;2.70;99.90
23207;DHT22;11773;52.570;13.052;2024-01-30T06:52:55;2.60;99.90
23207;DHT22;11773;52.570;13.052;2024-01-30T06:55:24;2.60;99.90
23207;DHT22;11773;52.570;13.052;2024-01-30T06:57:55;2.60;99.90
23207;DHT22;11773;52.570;13.052;2024-01-30T07:00:24;2.70;99.90
23207;DHT22;11773;52.570;13.052;2024-01-30T07:02:54;2.60;99.90
23207;DHT22;11773;52.570;13.052;2024-01-30T07:05:24;2.70;99.90
23207;DHT22;11773;52.570;13.052;2024-01-30T07:07:53;2.70;99.90
23207;DHT22;11773;52.570;13.052;2024-01-30T07:10:23;2.70;99.90
23207;DHT22;11773;52.570;13.052;2024-01-30T07:12:53;2.50;99.90
23207;DHT22;11773;52.570;13.052;2024-01-30T07:15:22;2.60;99.90
23207;DHT22;11773;52.570;13.052;2024-01-30T07:17:52;2.50;99.90
23207;DHT22;11773;52.570;13.052;2024-01-30T07:20:21;2.50;99.90
23207;DHT22;11773;52.570;13.052;2024-01-30T07:22:52;2.60;99.90
23207;DHT22;11773;52.570;13.052;2024-01-30T07:25:22;2.60;99.90
23207;DHT22;11773;52.570;13.052;2024-01-30T07:27:53;2.50;99.90
23207;DHT22;11773;52.570;13.052;2024-01-30T07:30:23;2.60;99.90
23207;DHT22;11773;52.570;13.052;2024-01-30T07:32:52;2.70;99.90
23207;DHT22;11773;52.570;13.052;2024-01-30T07:35:22;2.60;99.90
23207;DHT22;11773;52.570;13.052;2024-01-30T07:37:53;2.60;99.90
23207;DHT22;11773;52.570;13.052;2024-01-30T07:40:22;2.80;99.90
23207;DHT22;11773;52.570;13.052;2024-01-30T07:42:54;2.80;99.90
23207;DHT22;11773;52.570;13.052;2024-01-30T07:45:23;2.80;99.90
23207;DHT22;11773;52.570;13.052;2024-01-30T07:47:55;2.80;99.90
23207;DHT22;11773;52.570;13.052;2024-01-30T07:50:25;2.80;99.90
23207;DHT22;11773;52.570;13.052;2024-01-30T07:53:00;2.80;99.90
23207;DHT22;11773;52.570;13.052;2024-01-30T07:55:29;2.80;99.90
23207;DHT22;11773;52.570;13.052;2024-01-30T07:57:59;2.90;99.90
23207;DHT22;11773;52.570;13.052;2024-01-30T08:00:29;2.90;99.90
23207;DHT22;11773;52.570;13.052;2024-01-30T08:02:59;2.90;99.90
23207;DHT22;11773;52.570;13.052;2024-01-30T08:05:28;3.00;99.90
23207;DHT22;11773;52.570;13.052;2024-01-30T08:07:58;3.00;99.90
23207;DHT22;11773;52.570;13.052;2024-01-30T08:10:28;3.10;99.90
23207;DHT22;11773;52.570;13.052;2024-01-30T08:12:58;3.10;99.90
23207;DHT22;11773;52.570;13.052;2024-01-30T08:15:27;3.10;99.90
23207;DHT22;11773;52.570;13.052;2024-01-30T08:17:57;3.20;99.90
23207;DHT22;11773;52.570;13.052;2024-01-30T08:20:27;3.20;99.90
23207;DHT22;11773;52.570;13.052;2024-01-30T08:22:56;3.20;99.90
23207;DHT22;11773;52.570;13.052;2024-01-30T08:25:26;3.20;99.90
23207;DHT22;11773;52.570;13.052;2024-01-30T08:27:55;3.40;99.90
23207;DHT22;11773;52.570;13.052;2024-01-30T08:30:27;3.60;99.90
23207;DHT22;11773;52.570;13.052;2024-01-30T08:32:57;3.50;99.90
23207;DHT22;11773;52.570;13.052;2024-01-30T08:35:27;3.50;99.90
23207;DHT22;11773;52.570;13.052;2024-01-30T08:37:59;3.60;99.90
23207;DHT22;11773;52.570;13.052;2024-01-30T08:40:29;3.70;99.90
23207;DHT22;11773;52.570;13.052;2024-01-30T08:42:59;3.70;99.90
23207;DHT22;11773;52.570;13.052;2024-01-30T08:45:28;3.70;99.90
23207;DHT22;11773;52.570;13.052;2024-01-30T08:47:58;3.60;99.90
23207;DHT22;11773;52.570;13.052;2024-01-30T08:50:28;3.60;99.90
23207;DHT22;11773;52.570;13.052;2024-01-30T08:52:58;3.80;99.90
23207;DHT22;11773;52.570;13.052;2024-01-30T08:55:28;3.80;99.90
23207;DHT22;11773;52.570;13.052;2024-01-30T08:57:58;3.90;99.90
23207;DHT22;11773;52.570;13.052;2024-01-30T09:00:28;4.00;99.90
23207;DHT22;11773;52.570;13.052;2024-01-30T09:02:58;3.90;99.90
23207;DHT22;11773;52.570;13.052;2024-01-30T09:05:28;4.00;99.90
23207;DHT22;11773;52.570;13.052;2024-01-30T09:07:57;4.00;99.90
23207;DHT22;11773;52.570;13.052;2024-01-30T09:10:27;4.00;99.90
23207;DHT22;11773;52.570;13.052;2024-01-30T09:12:56;4.10;99.90
23207;DHT22;11773;52.570;13.052;2024-01-30T09:15:26;4.10;99.90
23207;DHT22;11773;52.570;13.052;2024-01-30T09:17:56;4.20;99.90
23207;DHT22;11773;52.570;13.052;2024-01-30T09:20:25;4.30;99.90
23207;DHT22;11773;52.570;13.052;2024-01-30T09:22:56;4.40;99.90
23207;DHT22;11773;52.570;13.052;2024-01-30T09:25:26;4.40;99.90
23207;DHT22;11773;52.570;13.052;2024-01-30T09:27:56;4.50;99.90
23207;DHT22;11773;52.570;13.052;2024-01-30T09:30:26;4.60;99.90
23207;DHT22;11773;52.570;13.052;2024-01-30T09:32:55;4.60;99.90
23207;DHT22;11773;52.570;13.052;2024-01-30T09:35:25;4.60;99.90
23207;DHT22;11773;52.570;13.052;2024-01-30T09:37:55;4.70;99.90
23207;DHT22;11773;52.570;13.052;2024-01-30T09:40:25;4.80;99.90
23207;DHT22;11773;52.570;13.052;2024-01-30T09:42:56;4.80;99.90
23207;DHT22;11773;52.570;13.052;2024-01-30T09:45:30;5.00;99.90
23207;DHT22;11773;52.570;13.052;2024-01-30T09:48:02;5.10;99.90
23207;DHT22;11773;52.570;13.052;2024-01-30T09:50:32;5.10;99.90
23207;DHT22;11773;52.570;13.052;2024-01-30T09:53:06;5.10;99.90
23207;DHT22;11773;52.570;13.052;2024-01-30T09:55:37;5.20;99.90
23207;DHT22;11773;52.570;13.052;2024-01-30T09:58:08;5.30;99.90
23207;DHT22;11773;52.570;13.052;2024-01-30T10:00:38;5.30;99.90
23207;DHT22;11773;52.570;13.052;2024-01-30T10:03:07;5.40;99.90
23207;DHT22;11773;52.570;13.052;2024-01-30T10:05:39;5.40;99.90
23207;DHT22;11773;52.570;13.052;2024-01-30T10:08:09;5.50;99.90
23207;DHT22;11773;52.570;13.052;2024-01-30T10:10:42;5.60;99.90
23207;DHT22;11773;52.570;13.052;2024-01-30T10:13:17;5.60;99.90
23207;DHT22;11773;52.570;13.052;2024-01-30T10:15:47;5.70;99.90
23207;DHT22;11773;52.570;13.052;2024-01-30T10:18:18;5.80;99.90
23207;DHT22;11773;52.570;13.052;2024-01-30T10:20:47;5.70;99.90
23207;DHT22;11773;52.570;13.052;2024-01-30T10:23:17;5.80;99.90
23207;DHT22;11773;52.570;13.052;2024-01-30T10:25:47;6.00;99.90
23207;DHT22;11773;52.570;13.052;2024-01-30T10:28:39;6.00;99.90
23207;DHT22;11773;52.570;13.052;2024-01-30T10:31:08;6.10;99.90
23207;DHT22;11773;52.570;13.052;2024-01-30T10:33:38;6.20;99.90
23207;DHT22;11773;52.570;13.052;2024-01-30T10:36:08;6.30;99.90
23207;DHT22;11773;52.570;13.052;2024-01-30T10:38:39;6.40;99.90
23207;DHT22;11773;52.570;13.052;2024-01-30T10:41:13;6.50;99.90
23207;DHT22;11773;52.570;13.052;2024-01-30T10:44:01;6.60;99.90
23207;DHT22;11773;52.570;13.052;2024-01-30T10:46:20;6.50;99.90
23207;DHT22;11773;52.570;13.052;2024-01-30T10:49:00;6.60;99.90
23207;DHT22;11773;52.570;13.052;2024-01-30T10:51:31;6.70;99.90
23207;DHT22;11773;52.570;13.052;2024-01-30T10:54:03;6.80;99.90
23207;DHT22;11773;52.570;13.052;2024-01-30T10:56:35;6.90;99.90
23207;DHT22;11773;52.570;13.052;2024-01-30T10:59:06;7.00;99.90
23207;DHT22;11773;52.570;13.052;2024-01-30T11:01:37;7.10;99.90
23207;DHT22;11773;52.570;13.052;2024-01-30T11:04:09;7.20;99.90
23207;DHT22;11773;52.570;13.052;2024-01-30T11:06:42;7.30;99.90
23207;DHT22;11773;52.570;13.052;2024-01-30T11:09:12;7.30;99.90
23207;DHT22;11773;52.570;13.052;2024-01-30T11:11:59;7.30;99.90
23207;DHT22;11773;52.570;13.052;2024-01-30T11:14:31;7.40;99.90
23207;DHT22;11773;52.570;13.052;2024-01-30T11:17:01;7.40;99.90
23207;DHT22;11773;52.570;13.052;2024-01-30T11:19:33;7.40;99.90
23207;DHT22;11773;52.570;13.052;2024-01-30T11:22:03;7.50;99.90
23207;DHT22;11773;52.570;13.052;2024-01-30T11:24:41;7.40;99.90
23207;DHT22;11773;52.570;13.052;2024-01-30T11:27:10;7.60;99.90
23207;DHT22;11773;52.570;13.052;2024-01-30T11:29:40;7.50;99.90
23207;DHT22;11773;52.570;13.052;2024-01-30T11:32:10;7.60;99.90
23207;DHT22;11773;52.570;13.052;2024-01-30T11:34:41;7.60;99.90
23207;DHT22;11773;52.570;13.052;2024-01-30T11:37:12;7.70;99.90
23207;DHT22;11773;52.570;13.052;2024-01-30T11:39:44;7.70;99.90
23207;DHT22;11773;52.570;13.052;2024-01-30T11:42:15;7.80;99.90
23207;DHT22;11773;52.570;13.052;2024-01-30T11:44:48;7.80;99.90
23207;DHT22;11773;52.570;13.052;2024-01-30T11:47:17;7.80;99.90
23207;DHT22;11773;52.570;13.052;2024-01-30T11:49:47;7.80;99.90
23207;DHT22;11773;52.570;13.052;2024-01-30T11:52:17;7.90;99.90
23207;DHT22;11773;52.570;13.052;2024-01-30T11:54:47;8.00;99.90
23207;DHT22;11773;52.570;13.052;2024-01-30T11:57:16;8.00;99.90
23207;DHT22;11773;52.570;13.052;2024-01-30T11:59:46;8.00;99.90
23207;DHT22;11773;52.570;13.052;2024-01-30T12:02:16;8.10;99.90
23207;DHT22;11773;52.570;13.052;2024-01-30T12:04:45;8.10;99.90
23207;DHT22;11773;52.570;13.052;2024-01-30T12:07:15;8.20;99.90
23207;DHT22;11773;52.570;13.052;2024-01-30T12:09:53;8.20;99.90
23207;DHT22;11773;52.570;13.052;2024-01-30T12:12:24;8.30;99.90
23207;DHT22;11773;52.570;13.052;2024-01-30T12:14:56;8.30;99.90
23207;DHT22;11773;52.570;13.052;2024-01-30T12:17:31;8.30;99.90
23207;DHT22;11773;52.570;13.052;2024-01-30T12:20:11;8.30;99.90
23207;DHT22;11773;52.570;13.052;2024-01-30T12:22:44;8.30;99.90
23207;DHT22;11773;52.570;13.052;2024-01-30T12:25:16;8.40;99.90
23207;DHT22;11773;52.570;13.052;2024-01-30T12:27:48;8.40;99.90
23207;DHT22;11773;52.570;13.052;2024-01-30T12:30:20;8.40;99.90
23207;DHT22;11773;52.570;13.052;2024-01-30T12:32:51;8.50;99.90
23207;DHT22;11773;52.570;13.052;2024-01-30T12:35:20;8.50;99.90
23207;DHT22;11773;52.570;13.052;2024-01-30T12:37:52;8.50;99.90
23207;DHT22;11773;52.570;13.052;2024-01-30T12:40:21;8.60;99.90
23207;DHT22;11773;52.570;13.052;2024-01-30T12:42:52;8.50;99.90
23207;DHT22;11773;52.570;13.052;2024-01-30T12:45:21;8.60;99.90
23207;DHT22;11773;52.570;13.052;2024-01-30T12:47:51;8.60;99.90
23207;DHT22;11773;52.570;13.052;2024-01-30T12:50:21;8.60;99.90
23207;DHT22;11773;52.570;13.052;2024-01-30T12:52:50;8.60;99.90
23207;DHT22;11773;52.570;13.052;2024-01-30T12:55:20;8.60;99.90
23207;DHT22;11773;52.570;13.052;2024-01-30T12:57:50;8.70;99.90
23207;DHT22;11773;52.570;13.052;2024-01-30T13:00:20;8.60;99.90
23207;DHT22;11773;52.570;13.052;2024-01-30T13:02:50;8.60;99.90
23207;DHT22;11773;52.570;13.052;2024-01-30T13:05:19;8.60;99.90
23207;DHT22;11773;52.570;13.052;2024-01-30T13:07:51;8.60;99.90
23207;DHT22;11773;52.570;13.052;2024-01-30T13:10:21;8.60;99.90
23207;DHT22;11773;52.570;13.052;2024-01-30T13:12:50;8.60;99.90
23207;DHT22;11773;52.570;13.052;2024-01-30T13:15:20;8.60;99.90
23207;DHT22;11773;52.570;13.052;2024-01-30T13:17:50;8.60;99.90
23207;DHT22;11773;52.570;13.052;2024-01-30T13:20:22;8.60;99.90
23207;DHT22;11773;52.570;13.052;2024-01-30T13:22:52;8.70;99.90
23207;DHT22;11773;52.570;13.052;2024-01-30T13:25:21;8.50;99.90
23207;DHT22;11773;52.570;13.052;2024-01-30T13:27:51;8.60;99.90
23207;DHT22;11773;52.570;13.052;2024-01-30T13:30:21;8.70;99.90
23207;DHT22;11773;52.570;13.052;2024-01-30T13:32:50;8.70;99.90
23207;DHT22;11773;52.570;13.052;2024-01-30T13:35:20;8.80;99.90
23207;DHT22;11773;52.570;13.052;2024-01-30T13:37:50;8.80;99.90
23207;DHT22;11773;52.570;13.052;2024-01-30T13:40:19;8.80;99.90
23207;DHT22;11773;52.570;13.052;2024-01-30T13:42:50;8.80;99.90
23207;DHT22;11773;52.570;13.052;2024-01-30T13:45:20;8.80;99.90
23207;DHT22;11773;52.570;13.052;2024-01-30T13:47:51;8.80;99.90
23207;DHT22;11773;52.570;13.052;2024-01-30T13:50:21;8.80;99.90
23207;DHT22;11773;52.570;13.052;2024-01-30T13:52:51;8.80;99.90
23207;DHT22;11773;52.570;13.052;2024-01-30T13:55:21;8.80;99.90
23207;DHT22;11773;52.570;13.052;2024-01-30T13:57:51;8.70;99.90
23207;DHT22;11773;52.570;13.052;2024-01-30T14:00:21;8.80;99.90
23207;DHT22;11773;52.570;13.052;2024-01-30T14:02:53;8.80;99.90
23207;DHT22;11773;52.570;13.052;2024-01-30T14:05:24;8.80;99.90
23207;DHT22;11773;52.570;13.052;2024-01-30T14:07:55;8.80;99.90
23207;DHT22;11773;52.570;13.052;2024-01-30T14:10:26;8.70;99.90
23207;DHT22;11773;52.570;13.052;2024-01-30T14:12:56;8.80;99.90
23207;DHT22;11773;52.570;13.052;2024-01-30T14:15:26;8.80;99.90
23207;DHT22;11773;52.570;13.052;2024-01-30T14:17:56;8.80;99.90
23207;DHT22;11773;52.570;13.052;2024-01-30T14:20:27;8.80;99.90
23207;DHT22;11773;52.570;13.052;2024-01-30T14:22:58;8.80;99.90
23207;DHT22;11773;52.570;13.052;2024-01-30T14:25:28;8.80;99.90
23207;DHT22;11773;52.570;13.052;2024-01-30T14:27:58;8.80;99.90
23207;DHT22;11773;52.570;13.052;2024-01-30T14:30:27;8.80;99.90
23207;DHT22;11773;52.570;13.052;2024-01-30T14:32:57;8.80;99.90
23207;DHT22;11773;52.570;13.052;2024-01-30T14:35:26;8.70;99.90
23207;DHT22;11773;52.570;13.052;2024-01-30T14:37:56;8.70;99.90
23207;DHT22;11773;52.570;13.052;2024-01-30T14:40:26;8.60;99.90
23207;DHT22;11773;52.570;13.052;2024-01-30T14:42:55;8.70;99.90
23207;DHT22;11773;52.570;13.052;2024-01-30T14:45:27;8.70;99.90
23207;DHT22;11773;52.570;13.052;2024-01-30T14:47:56;8.60;99.90
23207;DHT22;11773;52.570;13.052;2024-01-30T14:50:27;8.70;99.90
23207;DHT22;11773;52.570;13.052;2024-01-30T14:52:57;8.70;99.90
23207;DHT22;11773;52.570;13.052;2024-01-30T14:55:26;8.60;99.90
23207;DHT22;11773;52.570;13.052;2024-01-30T14:57:56;8.60;99.90
23207;DHT22;11773;52.570;13.052;2024-01-30T15:00:27;8.60;99.90
23207;DHT22;11773;52.570;13.052;2024-01-30T15:02:56;8.50;99.90
23207;DHT22;11773;52.570;13.052;2024-01-30T15:05:26;8.50;99.90
23207;DHT22;11773;52.570;13.052;2024-01-30T15:07:56;8.50;99.90
23207;DHT22;11773;52.570;13.052;2024-01-30T15:10:25;8.60;99.90
23207;DHT22;11773;52.570;13.052;2024-01-30T15:12:55;8.50;99.90
23207;DHT22;11773;52.570;13.052;2024-01-30T15:15:25;8.40;99.90
23207;DHT22;11773;52.570;13.052;2024-01-30T15:17:56;8.40;99.90
23207;DHT22;11773;52.570;13.052;2024-01-30T15:20:26;8.40;99.90
23207;DHT22;11773;52.570;13.052;2024-01-30T15:22:56;8.40;99.90
23207;DHT22;11773;52.570;13.052;2024-01-30T15:25:25;8.30;99.90
23207;DHT22;11773;52.570;13.052;2024-01-30T15:27:57;8.30;99.90
23207;DHT22;11773;52.570;13.052;2024-01-30T15:30:27;8.30;99.90
23207;DHT22;11773;52.570;13.052;2024-01-30T15:32:56;8.20;99.90
23207;DHT22;11773;52.570;13.052;2024-01-30T15:35:27;8.10;99.90
23207;DHT22;11773;52.570;13.052;2024-01-30T15:37:57;8.20;99.90
23207;DHT22;11773;52.570;13.052;2024-01-30T15:40:27;8.20;99.90
23207;DHT22;11773;52.570;13.052;2024-01-30T15:42:57;8.20;99.90
23207;DHT22;11773;52.570;13.052;2024-01-30T15:45:26;8.10;99.90
23207;DHT22;11773;52.570;13.052;2024-01-30T15:47:56;8.20;99.90
23207;DHT22;11773;52.570;13.052;2024-01-30T15:50:26;8.00;99.90
23207;DHT22;11773;52.570;13.052;2024-01-30T15:52:56;8.00;99.90
23207;DHT22;11773;52.570;13.052;2024-01-30T15:55:25;8.00;99.90